createdAt,value
2016-10-07T00:00:27.978Z,19
2016-10-07T00:01:41.101Z,18.96
2016-10-07T00:02:54.058Z,18.96
2016-10-07T00:04:07.564Z,18.87
2016-10-07T00:05:19.419Z,18.96
2016-10-07T00:06:31.961Z,18.93
2016-10-07T00:07:44.335Z,18.96
2016-10-07T00:08:56.723Z,18.9
2016-10-07T00:10:09.197Z,18.9
2016-10-07T00:11:22.137Z,19
2016-10-07T00:12:35.656Z,19.02
2016-10-07T00:13:48.583Z,19.02
2016-10-07T00:15:02.075Z,18.97
2016-10-07T00:16:14.513Z,19.05
2016-10-07T00:17:27.030Z,19.02
2016-10-07T00:18:40.019Z,18.94
2016-10-07T00:19:52.447Z,18.9
2016-10-07T00:21:04.848Z,18.84
2016-10-07T00:22:18.248Z,18.87
2016-10-07T00:23:31.700Z,18.93
2016-10-07T00:24:44.148Z,18.91
2016-10-07T00:25:57.133Z,18.93
2016-10-07T00:27:10.031Z,18.81
2016-10-07T00:28:23.603Z,18.81
2016-10-07T00:29:36.552Z,18.76
2016-10-07T00:30:49.503Z,18.74
2016-10-07T00:32:02.437Z,18.75
2016-10-07T00:33:15.928Z,18.72
2016-10-07T00:34:28.477Z,18.65
2016-10-07T00:35:41.454Z,18.63
2016-10-07T00:36:54.417Z,18.68
2016-10-07T00:38:07.393Z,18.61
2016-10-07T00:39:18.875Z,18.56
2016-10-07T00:40:31.838Z,18.47
2016-10-07T00:41:45.370Z,18.49
2016-10-07T00:42:58.787Z,18.54
2016-10-07T00:44:11.930Z,18.41
2016-10-07T00:45:24.434Z,18.47
2016-10-07T00:46:37.411Z,18.45
2016-10-07T00:47:50.380Z,18.39
2016-10-07T00:49:03.865Z,18.49
2016-10-07T00:50:16.346Z,18.42
2016-10-07T00:51:29.254Z,18.42
2016-10-07T00:52:42.228Z,18.41
2016-10-07T00:53:55.736Z,18.41
2016-10-07T00:55:07.690Z,18.5
2016-10-07T00:56:21.114Z,18.41
2016-10-07T00:57:34.029Z,18.47
2016-10-07T00:58:47.434Z,18.41
2016-10-07T00:59:59.838Z,18.49
2016-10-07T01:01:13.423Z,18.5
2016-10-07T01:02:26.377Z,18.49
2016-10-07T01:03:39.347Z,18.45
2016-10-07T01:04:51.279Z,18.38
2016-10-07T01:06:04.250Z,18.45
2016-10-07T01:07:17.227Z,18.49
2016-10-07T01:08:29.644Z,18.34
2016-10-07T01:09:41.576Z,18.41
2016-10-07T01:10:53.987Z,18.27
2016-10-07T01:12:07.523Z,18.31
2016-10-07T01:13:21.019Z,18.32
2016-10-07T01:14:34.575Z,18.23
2016-10-07T01:15:47.540Z,18.1
2016-10-07T01:17:00.038Z,18.17
2016-10-07T01:18:13.512Z,18.19
2016-10-07T01:19:26.403Z,18.14
2016-10-07T01:20:38.858Z,18.1
2016-10-07T01:21:51.784Z,18.08
2016-10-07T01:23:04.348Z,18.14
2016-10-07T01:24:17.781Z,18.14
2016-10-07T01:25:30.766Z,18.17
2016-10-07T01:26:44.138Z,18.17
2016-10-07T01:27:56.547Z,18.16
2016-10-07T01:29:10.158Z,18.14
2016-10-07T01:30:23.128Z,18.14
2016-10-07T01:31:36.090Z,18.08
2016-10-07T01:32:49.613Z,18.02
2016-10-07T01:34:02.152Z,18.06
2016-10-07T01:35:14.616Z,17.99
2016-10-07T01:36:27.606Z,17.96
2016-10-07T01:37:39.974Z,17.95
2016-10-07T01:38:52.875Z,17.95
2016-10-07T01:40:05.780Z,18.01
2016-10-07T01:41:18.789Z,17.94
2016-10-07T01:42:31.213Z,17.88
2016-10-07T01:43:44.171Z,17.86
2016-10-07T01:44:56.709Z,17.96
2016-10-07T01:46:10.143Z,18.01
2016-10-07T01:47:23.176Z,17.96
2016-10-07T01:48:36.735Z,17.96
2016-10-07T01:49:49.689Z,17.96
2016-10-07T01:51:03.190Z,17.98
2016-10-07T01:52:16.186Z,17.94
2016-10-07T01:53:28.019Z,17.96
2016-10-07T01:54:40.946Z,17.99
2016-10-07T01:55:53.480Z,17.95
2016-10-07T01:57:06.491Z,17.86
2016-10-07T01:58:19.940Z,17.84
2016-10-07T01:59:33.519Z,17.96
2016-10-07T02:00:46.494Z,17.86
2016-10-07T02:01:59.438Z,17.9
2016-10-07T02:03:12.938Z,17.79
2016-10-07T02:04:26.427Z,17.86
2016-10-07T02:05:38.928Z,17.88
2016-10-07T02:06:52.479Z,17.84
2016-10-07T02:08:05.495Z,17.69
2016-10-07T02:09:18.452Z,17.63
2016-10-07T02:10:31.916Z,17.71
2016-10-07T02:11:45.126Z,17.68
2016-10-07T02:12:57.573Z,17.65
2016-10-07T02:14:11.101Z,17.65
2016-10-07T02:15:22.476Z,17.65
2016-10-07T02:16:35.489Z,17.55
2016-10-07T02:17:48.535Z,17.5
2016-10-07T02:19:02.009Z,17.49
2016-10-07T02:20:14.984Z,17.45
2016-10-07T02:21:28.447Z,17.45
2016-10-07T02:22:41.419Z,17.47
2016-10-07T02:23:53.875Z,17.36
2016-10-07T02:25:06.334Z,17.35
2016-10-07T02:26:18.734Z,17.31
2016-10-07T02:27:31.676Z,17.35
2016-10-07T02:28:45.212Z,17.35
2016-10-07T02:29:57.638Z,17.32
2016-10-07T02:31:11.116Z,17.32
2016-10-07T02:32:24.066Z,17.32
2016-10-07T02:33:36.528Z,17.3
2016-10-07T02:34:49.447Z,17.35
2016-10-07T02:36:01.361Z,17.36
2016-10-07T02:37:13.301Z,17.35
2016-10-07T02:38:26.267Z,17.38
2016-10-07T02:39:39.365Z,17.22
2016-10-07T02:40:51.771Z,17.3
2016-10-07T02:42:04.265Z,17.35
2016-10-07T02:43:16.672Z,17.36
2016-10-07T02:44:29.098Z,17.32
2016-10-07T02:45:42.576Z,17.32
2016-10-07T02:46:54.467Z,17.32
2016-10-07T02:48:06.835Z,17.36
2016-10-07T02:49:19.804Z,17.35
2016-10-07T02:50:32.828Z,17.36
2016-10-07T02:51:45.250Z,17.35
2016-10-07T02:52:58.783Z,17.32
2016-10-07T02:54:11.278Z,17.36
2016-10-07T02:55:23.199Z,17.35
2016-10-07T02:56:36.177Z,17.32
2016-10-07T02:57:48.114Z,17.32
2016-10-07T02:59:00.517Z,17.22
2016-10-07T03:00:12.997Z,17.31
2016-10-07T03:01:25.561Z,17.38
2016-10-07T03:02:37.952Z,17.25
2016-10-07T03:03:50.362Z,17.21
2016-10-07T03:05:03.356Z,17.2
2016-10-07T03:06:16.879Z,17.3
2016-10-07T03:07:29.805Z,17.38
2016-10-07T03:08:42.303Z,17.32
2016-10-07T03:09:55.812Z,17.36
2016-10-07T03:11:08.202Z,17.22
2016-10-07T03:12:20.739Z,17.35
2016-10-07T03:13:33.671Z,17.36
2016-10-07T03:14:45.568Z,17.39
2016-10-07T03:15:58.553Z,17.28
2016-10-07T03:17:11.503Z,17.31
2016-10-07T03:18:24.396Z,17.3
2016-10-07T03:19:36.912Z,17.36
2016-10-07T03:20:48.876Z,17.32
2016-10-07T03:22:01.305Z,17.32
2016-10-07T03:23:14.885Z,17.32
2016-10-07T03:24:27.915Z,17.35
2016-10-07T03:25:41.443Z,17.25
2016-10-07T03:26:54.441Z,17.2
2016-10-07T03:28:06.949Z,17.31
2016-10-07T03:29:20.432Z,17.22
2016-10-07T03:30:32.909Z,17.35
2016-10-07T03:31:45.905Z,17.31
2016-10-07T03:32:58.912Z,17.36
2016-10-07T03:34:12.452Z,17.31
2016-10-07T03:35:25.417Z,17.3
2016-10-07T03:36:38.853Z,17.32
2016-10-07T03:37:51.839Z,17.38
2016-10-07T03:39:04.273Z,17.32
2016-10-07T03:40:17.232Z,17.31
2016-10-07T03:41:29.137Z,17.32
2016-10-07T03:42:42.107Z,17.36
2016-10-07T03:43:54.579Z,17.22
2016-10-07T03:45:08.366Z,17.15
2016-10-07T03:46:21.287Z,17.27
2016-10-07T03:47:34.763Z,17.17
2016-10-07T03:48:48.346Z,17.1
2016-10-07T03:50:01.925Z,17.22
2016-10-07T03:51:14.855Z,17.15
2016-10-07T03:52:27.325Z,17.28
2016-10-07T03:53:40.264Z,17.22
2016-10-07T03:54:53.726Z,17.09
2016-10-07T03:56:06.753Z,17.21
2016-10-07T03:57:19.692Z,17.17
2016-10-07T03:58:33.179Z,17.17
2016-10-07T03:59:46.655Z,17.17
2016-10-07T04:01:00.154Z,17.18
2016-10-07T04:02:13.632Z,17.06
2016-10-07T04:03:27.135Z,17.13
2016-10-07T04:04:40.098Z,17.1
2016-10-07T04:05:53.083Z,17.12
2016-10-07T04:07:06.129Z,17.15
2016-10-07T04:08:19.111Z,17.13
2016-10-07T04:09:31.006Z,17.09
2016-10-07T04:10:44.578Z,17.2
2016-10-07T04:11:58.041Z,17.24
2016-10-07T04:13:11.024Z,17.27
2016-10-07T04:14:24.071Z,17.22
2016-10-07T04:15:37.071Z,17.2
2016-10-07T04:16:50.516Z,17.25
2016-10-07T04:18:04.084Z,17.22
2016-10-07T04:19:17.035Z,17.21
2016-10-07T04:20:30.539Z,17.21
2016-10-07T04:21:44.055Z,17.22
2016-10-07T04:22:57.073Z,17.22
2016-10-07T04:24:09.530Z,17.25
2016-10-07T04:25:22.988Z,17.24
2016-10-07T04:26:36.450Z,17.31
2016-10-07T04:27:48.897Z,17.32
2016-10-07T04:29:01.518Z,17.32
2016-10-07T04:30:14.468Z,17.3
2016-10-07T04:31:27.438Z,17.24
2016-10-07T04:32:40.873Z,17.32
2016-10-07T04:33:52.781Z,17.18
2016-10-07T04:35:05.774Z,17.21
2016-10-07T04:36:18.202Z,17.22
2016-10-07T04:37:30.663Z,17.24
2016-10-07T04:38:43.093Z,17.24
2016-10-07T04:39:56.256Z,17.21
2016-10-07T04:41:08.697Z,17.35
2016-10-07T04:42:22.242Z,17.24
2016-10-07T04:43:35.700Z,17.38
2016-10-07T04:44:48.723Z,17.32
2016-10-07T04:46:01.295Z,17.35
2016-10-07T04:47:14.783Z,17.36
2016-10-07T04:48:27.732Z,17.21
2016-10-07T04:49:39.682Z,17.22
2016-10-07T04:50:51.705Z,17.25
2016-10-07T04:52:03.633Z,17.24
2016-10-07T04:53:16.103Z,17.3
2016-10-07T04:54:29.098Z,17.2
2016-10-07T04:55:42.614Z,17.1
2016-10-07T04:56:56.148Z,17.21
2016-10-07T04:58:09.143Z,17.18
2016-10-07T04:59:22.111Z,17.17
2016-10-07T05:00:34.586Z,17.12
2016-10-07T05:01:48.154Z,17.22
2016-10-07T05:03:01.352Z,17.27
2016-10-07T05:04:14.316Z,17.17
2016-10-07T05:05:26.737Z,17.1
2016-10-07T05:06:39.164Z,17.22
2016-10-07T05:07:51.560Z,17.22
2016-10-07T05:09:05.048Z,17.21
2016-10-07T05:10:18.579Z,17.2
2016-10-07T05:11:31.509Z,17.1
2016-10-07T05:12:43.011Z,17.18
2016-10-07T05:13:55.914Z,17.24
2016-10-07T05:15:06.795Z,17.27
2016-10-07T05:16:19.799Z,17.22
2016-10-07T05:17:32.731Z,17.22
2016-10-07T05:18:45.976Z,17.22
2016-10-07T05:19:57.884Z,17.13
2016-10-07T05:21:09.821Z,17.1
2016-10-07T05:22:22.264Z,17.17
2016-10-07T05:23:34.839Z,17.24
2016-10-07T05:24:48.306Z,17.22
2016-10-07T05:26:00.725Z,17.22
2016-10-07T05:27:13.145Z,17.25
2016-10-07T05:28:26.167Z,17.21
2016-10-07T05:29:39.093Z,17.28
2016-10-07T05:30:50.983Z,17.22
2016-10-07T05:32:03.413Z,17.22
2016-10-07T05:33:16.355Z,17.13
2016-10-07T05:34:29.501Z,17.28
2016-10-07T05:35:43.012Z,17.22
2016-10-07T05:36:55.949Z,17.15
2016-10-07T05:38:08.416Z,17.2
2016-10-07T05:39:20.919Z,17.25
2016-10-07T05:40:34.431Z,17.24
2016-10-07T05:41:47.977Z,17.21
2016-10-07T05:43:00.408Z,17.18
2016-10-07T05:44:13.356Z,17.1
2016-10-07T05:45:26.495Z,17.2
2016-10-07T05:46:38.341Z,17.15
2016-10-07T05:47:51.358Z,17.2
2016-10-07T05:49:04.290Z,17.13
2016-10-07T05:50:17.734Z,17.07
2016-10-07T05:51:31.006Z,17.1
2016-10-07T05:52:43.371Z,17.12
2016-10-07T05:53:56.818Z,17.03
2016-10-07T05:55:08.769Z,17
2016-10-07T05:56:20.409Z,16.91
2016-10-07T05:57:33.350Z,17.05
2016-10-07T05:58:47.052Z,17
2016-10-07T05:59:59.971Z,16.92
2016-10-07T06:01:12.358Z,16.97
2016-10-07T06:02:25.288Z,16.95
2016-10-07T06:03:38.789Z,16.99
2016-10-07T06:04:52.213Z,16.99
2016-10-07T06:06:05.180Z,16.94
2016-10-07T06:07:18.850Z,16.95
2016-10-07T06:08:30.220Z,16.91
2016-10-07T06:09:43.746Z,16.94
2016-10-07T06:10:56.736Z,16.91
2016-10-07T06:12:09.174Z,16.9
2016-10-07T06:13:21.772Z,16.84
2016-10-07T06:14:35.314Z,16.77
2016-10-07T06:15:48.246Z,16.81
2016-10-07T06:17:01.267Z,16.74
2016-10-07T06:18:14.325Z,16.69
2016-10-07T06:19:26.195Z,16.73
2016-10-07T06:20:39.680Z,16.66
2016-10-07T06:21:52.125Z,16.74
2016-10-07T06:23:04.598Z,16.7
2016-10-07T06:24:18.164Z,16.73
2016-10-07T06:25:31.695Z,16.76
2016-10-07T06:26:45.202Z,16.73
2016-10-07T06:27:58.816Z,16.73
2016-10-07T06:29:12.536Z,16.74
2016-10-07T06:30:25.989Z,16.7
2016-10-07T06:31:38.911Z,16.66
2016-10-07T06:32:51.291Z,16.73
2016-10-07T06:34:03.741Z,16.67
2016-10-07T06:35:16.729Z,16.72
2016-10-07T06:36:30.172Z,16.72
2016-10-07T06:37:43.791Z,16.73
2016-10-07T06:38:56.944Z,16.73
2016-10-07T06:40:10.609Z,16.69
2016-10-07T06:41:23.551Z,16.66
2016-10-07T06:42:36.026Z,16.65
2016-10-07T06:43:48.454Z,16.66
2016-10-07T06:45:01.903Z,16.55
2016-10-07T06:46:14.342Z,16.57
2016-10-07T06:47:26.201Z,16.58
2016-10-07T06:48:39.409Z,16.52
2016-10-07T06:49:52.912Z,16.57
2016-10-07T06:51:05.952Z,16.54
2016-10-07T06:52:18.929Z,16.59
2016-10-07T06:53:32.452Z,16.59
2016-10-07T06:54:45.433Z,16.65
2016-10-07T06:55:57.986Z,16.65
2016-10-07T06:57:10.957Z,16.63
2016-10-07T06:58:24.431Z,16.65
2016-10-07T06:59:36.339Z,16.69
2016-10-07T07:00:49.304Z,16.59
2016-10-07T07:02:03.023Z,16.62
2016-10-07T07:03:16.017Z,16.67
2016-10-07T07:04:28.479Z,16.65
2016-10-07T07:05:40.941Z,16.67
2016-10-07T07:06:52.843Z,16.62
2016-10-07T07:08:06.560Z,16.72
2016-10-07T07:09:19.553Z,16.57
2016-10-07T07:10:31.418Z,16.54
2016-10-07T07:11:43.840Z,16.57
2016-10-07T07:12:56.956Z,16.49
2016-10-07T07:14:10.466Z,16.52
2016-10-07T07:15:23.435Z,16.58
2016-10-07T07:16:36.387Z,16.57
2016-10-07T07:17:49.855Z,16.49
2016-10-07T07:19:03.501Z,16.47
2016-10-07T07:20:17.640Z,16.47
2016-10-07T07:21:31.222Z,16.51
2016-10-07T07:22:44.648Z,16.51
2016-10-07T07:23:58.276Z,16.48
2016-10-07T07:25:11.755Z,16.49
2016-10-07T07:26:24.211Z,16.36
2016-10-07T07:27:36.657Z,16.42
2016-10-07T07:28:49.628Z,16.42
2016-10-07T07:30:03.240Z,16.47
2016-10-07T07:31:15.716Z,16.44
2016-10-07T07:32:27.555Z,16.47
2016-10-07T07:33:40.582Z,16.44
2016-10-07T07:34:54.254Z,16.44
2016-10-07T07:36:07.202Z,16.42
2016-10-07T07:37:19.652Z,16.36
2016-10-07T07:38:33.132Z,16.39
2016-10-07T07:39:46.599Z,16.45
2016-10-07T07:40:59.249Z,16.39
2016-10-07T07:42:12.202Z,16.4
2016-10-07T07:43:25.668Z,16.44
2016-10-07T07:44:38.630Z,16.42
2016-10-07T07:45:51.732Z,16.44
2016-10-07T07:47:04.741Z,16.42
2016-10-07T07:48:18.263Z,16.44
2016-10-07T07:49:30.664Z,16.52
2016-10-07T07:50:43.680Z,16.42
2016-10-07T07:51:57.289Z,16.49
2016-10-07T07:53:10.769Z,16.49
2016-10-07T07:54:23.731Z,16.52
2016-10-07T07:55:36.681Z,16.48
2016-10-07T07:56:49.283Z,16.47
2016-10-07T07:58:01.753Z,16.45
2016-10-07T07:59:14.636Z,16.44
2016-10-07T08:00:28.099Z,16.42
2016-10-07T08:01:41.547Z,16.44
2016-10-07T08:02:54.070Z,16.45
2016-10-07T08:04:07.612Z,16.44
2016-10-07T08:05:21.102Z,16.4
2016-10-07T08:06:33.532Z,16.39
2016-10-07T08:07:46.545Z,16.33
2016-10-07T08:09:00.006Z,16.36
2016-10-07T08:10:12.480Z,16.29
2016-10-07T08:11:25.935Z,16.34
2016-10-07T08:12:39.590Z,16.29
2016-10-07T08:13:51.483Z,16.34
2016-10-07T08:15:04.848Z,16.33
2016-10-07T08:16:17.310Z,16.33
2016-10-07T08:17:30.813Z,16.33
2016-10-07T08:18:43.290Z,16.36
2016-10-07T08:19:55.712Z,16.4
2016-10-07T08:21:08.718Z,16.37
2016-10-07T08:22:20.091Z,16.39
2016-10-07T08:23:33.037Z,16.32
2016-10-07T08:24:45.526Z,16.44
2016-10-07T08:25:57.990Z,16.33
2016-10-07T08:27:10.989Z,16.34
2016-10-07T08:28:24.473Z,16.39
2016-10-07T08:29:37.668Z,16.4
2016-10-07T08:30:51.154Z,16.51
2016-10-07T08:32:04.392Z,16.52
2016-10-07T08:33:16.806Z,16.52
2016-10-07T08:34:28.634Z,16.48
2016-10-07T08:35:41.768Z,16.51
2016-10-07T08:36:54.771Z,16.52
2016-10-07T08:38:08.305Z,16.4
2016-10-07T08:39:21.860Z,16.51
2016-10-07T08:40:35.098Z,16.45
2016-10-07T08:41:48.776Z,16.42
2016-10-07T08:43:01.221Z,16.51
2016-10-07T08:44:14.673Z,16.4
2016-10-07T08:45:27.619Z,16.42
2016-10-07T08:46:40.160Z,16.45
2016-10-07T08:47:53.121Z,16.47
2016-10-07T08:49:06.059Z,16.37
2016-10-07T08:50:18.514Z,16.45
2016-10-07T08:51:31.696Z,16.42
2016-10-07T08:52:44.115Z,16.52
2016-10-07T08:53:56.527Z,16.51
2016-10-07T08:55:08.427Z,16.49
2016-10-07T08:56:21.380Z,16.47
2016-10-07T08:57:33.979Z,16.45
2016-10-07T08:58:46.991Z,16.48
2016-10-07T09:00:00.056Z,16.37
2016-10-07T09:01:12.983Z,16.37
2016-10-07T09:02:25.548Z,16.37
2016-10-07T09:03:39.091Z,16.47
2016-10-07T09:04:52.091Z,16.44
2016-10-07T09:06:05.088Z,16.51
2016-10-07T09:07:18.045Z,16.48
2016-10-07T09:08:31.644Z,16.54
2016-10-07T09:09:44.115Z,16.57
2016-10-07T09:10:56.577Z,16.49
2016-10-07T09:12:09.026Z,16.57
2016-10-07T09:13:22.172Z,16.65
2016-10-07T09:14:35.162Z,16.63
2016-10-07T09:15:47.786Z,16.66
2016-10-07T09:17:00.771Z,16.57
2016-10-07T09:18:14.220Z,16.72
2016-10-07T09:19:27.269Z,16.63
2016-10-07T09:20:40.239Z,16.72
2016-10-07T09:21:52.737Z,16.66
2016-10-07T09:23:04.676Z,16.7
2016-10-07T09:24:17.371Z,16.72
2016-10-07T09:25:30.294Z,16.65
2016-10-07T09:26:42.742Z,16.73
2016-10-07T09:27:56.262Z,16.7
2016-10-07T09:29:09.820Z,16.87
2016-10-07T09:30:22.368Z,16.81
2016-10-07T09:31:35.366Z,16.92
2016-10-07T09:32:48.792Z,16.91
2016-10-07T09:34:00.696Z,17.06
2016-10-07T09:35:13.761Z,17.12
2016-10-07T09:36:27.195Z,17.17
2016-10-07T09:37:39.065Z,17.22
2016-10-07T09:38:51.993Z,17.32
2016-10-07T09:40:05.151Z,17.4
2016-10-07T09:41:18.603Z,17.52
2016-10-07T09:42:30.024Z,17.5
2016-10-07T09:43:41.936Z,17.5
2016-10-07T09:44:55.107Z,17.52
2016-10-07T09:46:07.697Z,17.65
2016-10-07T09:47:20.716Z,17.68
2016-10-07T09:48:34.180Z,17.66
2016-10-07T09:49:46.559Z,17.87
2016-10-07T09:51:00.111Z,17.83
2016-10-07T09:52:13.233Z,17.86
2016-10-07T09:53:26.208Z,17.81
2016-10-07T09:54:38.085Z,17.83
2016-10-07T09:55:50.509Z,17.86
2016-10-07T09:57:03.647Z,17.92
2016-10-07T09:58:16.596Z,18.02
2016-10-07T09:59:29.594Z,18.02
2016-10-07T10:00:42.056Z,18.11
2016-10-07T10:01:55.008Z,18.16
2016-10-07T10:03:07.893Z,18.29
2016-10-07T10:04:20.798Z,18.26
2016-10-07T10:05:33.751Z,18.24
2016-10-07T10:06:46.339Z,18.32
2016-10-07T10:07:59.454Z,18.32
2016-10-07T10:09:11.442Z,18.34
2016-10-07T10:10:24.567Z,18.35
2016-10-07T10:11:38.421Z,18.45
2016-10-07T10:12:50.922Z,18.61
2016-10-07T10:14:04.457Z,18.69
2016-10-07T10:15:16.975Z,18.78
2016-10-07T10:16:30.094Z,18.79
2016-10-07T10:17:43.063Z,18.87
2016-10-07T10:18:56.217Z,19.02
2016-10-07T10:20:09.711Z,19.07
2016-10-07T10:21:23.963Z,19.17
2016-10-07T10:22:35.848Z,19.19
2016-10-07T10:23:47.792Z,19.35
2016-10-07T10:25:00.733Z,19.34
2016-10-07T10:26:14.214Z,19.37
2016-10-07T10:27:26.212Z,19.34
2016-10-07T10:28:38.640Z,19.34
2016-10-07T10:29:52.247Z,19.28
2016-10-07T10:31:04.688Z,19.38
2016-10-07T10:32:16.720Z,19.38
2016-10-07T10:33:29.639Z,19.34
2016-10-07T10:34:42.727Z,19.4
2016-10-07T10:35:55.678Z,19.53
2016-10-07T10:37:08.216Z,19.57
2016-10-07T10:38:21.121Z,19.56
2016-10-07T10:39:33.723Z,19.64
2016-10-07T10:40:46.993Z,19.7
2016-10-07T10:41:59.454Z,19.9
2016-10-07T10:43:11.320Z,19.92
2016-10-07T10:44:24.198Z,19.82
2016-10-07T10:45:37.744Z,19.75
2016-10-07T10:46:50.270Z,19.61
2016-10-07T10:48:03.482Z,19.56
2016-10-07T10:49:16.520Z,19.32
2016-10-07T10:50:29.458Z,19.2
2016-10-07T10:51:41.493Z,19.23
2016-10-07T10:52:54.481Z,19.1
2016-10-07T10:54:06.936Z,18.96
2016-10-07T10:55:20.405Z,18.93
2016-10-07T10:56:33.342Z,18.91
2016-10-07T10:57:47.109Z,18.97
2016-10-07T10:59:00.046Z,18.97
2016-10-07T11:00:13.511Z,19.06
2016-10-07T11:01:25.965Z,19.2
2016-10-07T11:02:38.647Z,19.31
2016-10-07T11:03:52.132Z,19.34
2016-10-07T11:05:04.022Z,19.38
2016-10-07T11:06:17.024Z,19.53
2016-10-07T11:07:29.965Z,19.57
2016-10-07T11:08:43.537Z,19.64
2016-10-07T11:09:56.533Z,19.7
2016-10-07T11:11:09.531Z,19.79
2016-10-07T11:12:21.998Z,19.82
2016-10-07T11:13:35.032Z,19.79
2016-10-07T11:14:48.017Z,19.85
2016-10-07T11:16:00.988Z,19.83
2016-10-07T11:17:14.489Z,19.79
2016-10-07T11:18:27.461Z,20.02
2016-10-07T11:19:39.946Z,20.05
2016-10-07T11:20:52.936Z,20.18
2016-10-07T11:22:05.392Z,20.37
2016-10-07T11:23:18.421Z,20.49
2016-10-07T11:24:32.060Z,20.61
2016-10-07T11:25:45.091Z,20.82
2016-10-07T11:26:57.800Z,20.93
2016-10-07T11:28:10.297Z,20.98
2016-10-07T11:29:23.722Z,21.04
2016-10-07T11:30:37.250Z,21.21
2016-10-07T11:31:50.169Z,21.25
2016-10-07T11:33:03.165Z,21.34
2016-10-07T11:34:16.679Z,21.34
2016-10-07T11:35:29.802Z,21.48
2016-10-07T11:36:42.366Z,21.53
2016-10-07T11:37:55.429Z,21.52
2016-10-07T11:39:08.897Z,21.45
2016-10-07T11:40:21.906Z,21.41
2016-10-07T11:41:34.492Z,21.48
2016-10-07T11:42:46.698Z,21.66
2016-10-07T11:43:59.757Z,21.59
2016-10-07T11:45:12.759Z,21.73
2016-10-07T11:46:25.790Z,21.85
2016-10-07T11:47:38.240Z,22.05
2016-10-07T11:48:51.197Z,22.18
2016-10-07T11:50:03.138Z,22.41
2016-10-07T11:51:16.223Z,22.52
2016-10-07T11:52:28.805Z,22.6
2016-10-07T11:53:41.952Z,22.61
2016-10-07T11:54:53.870Z,22.7
2016-10-07T11:56:06.417Z,22.81
2016-10-07T11:57:19.559Z,22.96
2016-10-07T11:58:32.540Z,23.01
2016-10-07T11:59:44.490Z,23.16
2016-10-07T12:00:57.534Z,23.22
2016-10-07T12:02:10.537Z,23.32
2016-10-07T12:03:23.640Z,23.42
2016-10-07T12:04:36.776Z,23.63
2016-10-07T12:05:49.825Z,23.7
2016-10-07T12:07:02.762Z,23.67
2016-10-07T12:08:15.893Z,23.66
2016-10-07T12:09:28.902Z,23.6
2016-10-07T12:10:41.424Z,23.66
2016-10-07T12:11:54.363Z,23.52
2016-10-07T12:13:07.363Z,23.4
2016-10-07T12:14:20.669Z,23.4
2016-10-07T12:15:33.734Z,23.41
2016-10-07T12:16:47.251Z,23.35
2016-10-07T12:18:00.751Z,23.25
2016-10-07T12:19:12.919Z,23.24
2016-10-07T12:20:26.438Z,23.32
2016-10-07T12:21:39.359Z,23.44
2016-10-07T12:22:52.325Z,23.72
2016-10-07T12:24:05.765Z,23.81
2016-10-07T12:25:18.322Z,23.81
2016-10-07T12:26:31.373Z,23.9
2016-10-07T12:27:43.857Z,23.94
2016-10-07T12:28:56.633Z,23.93
2016-10-07T12:30:09.395Z,23.84
2016-10-07T12:31:22.981Z,23.74
2016-10-07T12:32:36.028Z,23.7
2016-10-07T12:33:48.964Z,23.59
2016-10-07T12:35:02.034Z,23.41
2016-10-07T12:36:15.108Z,23.26
2016-10-07T12:37:28.063Z,23.21
2016-10-07T12:38:40.447Z,23.18
2016-10-07T12:39:52.936Z,23.35
2016-10-07T12:41:06.061Z,23.38
2016-10-07T12:42:19.204Z,23.29
2016-10-07T12:43:32.246Z,23.48
2016-10-07T12:44:44.671Z,23.59
2016-10-07T12:45:57.762Z,23.71
2016-10-07T12:47:13.359Z,24
2016-10-07T12:48:29.107Z,23.97
2016-10-07T12:49:42.316Z,24.14
2016-10-07T12:50:55.399Z,24.15
2016-10-07T12:52:08.743Z,24.17
2016-10-07T12:53:22.213Z,24.03
2016-10-07T12:54:35.123Z,23.94
2016-10-07T12:55:47.037Z,23.87
2016-10-07T12:56:59.515Z,23.94
2016-10-07T12:58:12.509Z,24.03
2016-10-07T12:59:25.730Z,24.12
2016-10-07T13:00:38.242Z,24.22
2016-10-07T13:01:51.762Z,24.26
2016-10-07T13:03:04.822Z,24.32
2016-10-07T13:04:17.811Z,24.45
2016-10-07T13:05:30.789Z,24.58
2016-10-07T13:06:44.330Z,24.8
2016-10-07T13:07:57.391Z,24.86
2016-10-07T13:09:10.964Z,24.86
2016-10-07T13:10:23.952Z,25.12
2016-10-07T13:11:38.532Z,25.32
2016-10-07T13:12:50.947Z,25.32
2016-10-07T13:14:03.184Z,25.47
2016-10-07T13:15:16.201Z,25.6
2016-10-07T13:16:28.126Z,25.82
2016-10-07T13:17:41.111Z,25.89
2016-10-07T13:18:54.292Z,25.97
2016-10-07T13:20:06.207Z,25.99
2016-10-07T13:21:18.695Z,25.94
2016-10-07T13:22:30.614Z,25.76
2016-10-07T13:23:43.566Z,25.82
2016-10-07T13:24:56.155Z,25.67
2016-10-07T13:26:09.753Z,25.54
2016-10-07T13:27:22.362Z,25.48
2016-10-07T13:28:34.849Z,25.45
2016-10-07T13:29:48.600Z,25.42
2016-10-07T13:31:02.438Z,25.44
2016-10-07T13:32:14.976Z,25.45
2016-10-07T13:33:28.033Z,25.52
2016-10-07T13:34:41.667Z,25.67
2016-10-07T13:35:55.305Z,25.81
2016-10-07T13:37:08.239Z,26.01
2016-10-07T13:38:21.229Z,26.09
2016-10-07T13:39:34.346Z,26.16
2016-10-07T13:40:46.410Z,26.44
2016-10-07T13:41:59.954Z,26.63
2016-10-07T13:43:12.979Z,26.75
2016-10-07T13:44:26.010Z,27.04
2016-10-07T13:45:37.926Z,27.11
2016-10-07T13:46:51.395Z,27.27
2016-10-07T13:48:04.362Z,27.3
2016-10-07T13:49:18.192Z,27.38
2016-10-07T13:50:30.829Z,27.37
2016-10-07T13:51:43.591Z,27.3
2016-10-07T13:52:57.269Z,27.37
2016-10-07T13:54:10.202Z,27.24
2016-10-07T13:55:22.629Z,27.42
2016-10-07T13:56:35.848Z,27.46
2016-10-07T13:57:49.539Z,27.65
2016-10-07T13:59:03.087Z,27.8
2016-10-07T14:00:16.534Z,27.89
2016-10-07T14:01:29.636Z,28.01
2016-10-07T14:02:41.616Z,28.31
2016-10-07T14:03:54.111Z,28.54
2016-10-07T14:05:06.541Z,28.88
2016-10-07T14:06:19.993Z,28.92
2016-10-07T14:07:33.361Z,29.06
2016-10-07T14:08:46.327Z,28.97
2016-10-07T14:09:59.798Z,29.15
2016-10-07T14:11:13.301Z,29.97
2016-10-07T14:12:26.788Z,30.35
2016-10-07T14:13:40.088Z,30.89
2016-10-07T14:14:54.231Z,31.4
2016-10-07T14:16:08.766Z,32.1
2016-10-07T14:17:22.054Z,32.71
2016-10-07T14:18:35.595Z,32.83
2016-10-07T14:19:49.092Z,32.59
2016-10-07T14:21:01.886Z,32.3
2016-10-07T14:22:15.779Z,31.8
2016-10-07T14:23:29.120Z,31.65
2016-10-07T14:24:42.991Z,31.49
2016-10-07T14:25:56.476Z,31.36
2016-10-07T14:27:09.998Z,31.07
2016-10-07T14:28:22.936Z,30.99
2016-10-07T14:29:36.204Z,30.96
2016-10-07T14:30:48.687Z,30.97
2016-10-07T14:32:02.215Z,30.97
2016-10-07T14:33:15.173Z,30.94
2016-10-07T14:34:27.061Z,30.99
2016-10-07T14:35:40.458Z,30.93
2016-10-07T14:36:53.722Z,30.73
2016-10-07T14:38:06.648Z,30.75
2016-10-07T14:39:19.803Z,30.57
2016-10-07T14:40:32.468Z,30.56
2016-10-07T14:41:44.898Z,30.49
2016-10-07T14:42:57.396Z,30.45
2016-10-07T14:44:10.647Z,30.35
2016-10-07T14:45:24.108Z,30.26
2016-10-07T14:46:37.067Z,30.04
2016-10-07T14:47:50.064Z,29.94
2016-10-07T14:49:01.468Z,29.77
2016-10-07T14:50:13.911Z,29.67
2016-10-07T14:51:26.455Z,29.66
2016-10-07T14:52:39.412Z,29.54
2016-10-07T14:53:51.304Z,29.79
2016-10-07T14:55:04.315Z,30.54
2016-10-07T14:56:17.779Z,30.91
2016-10-07T14:57:30.233Z,31.19
2016-10-07T14:58:43.219Z,31.26
2016-10-07T14:59:56.224Z,31.22
2016-10-07T15:01:09.472Z,31.59
2016-10-07T15:02:22.636Z,32.57
2016-10-07T15:03:35.077Z,33.24
2016-10-07T15:04:48.929Z,33.46
2016-10-07T15:06:02.381Z,33.62
2016-10-07T15:07:15.391Z,33.61
2016-10-07T15:08:29.022Z,33.52
2016-10-07T15:09:41.975Z,33.55
2016-10-07T15:10:54.975Z,33.47
2016-10-07T15:12:08.510Z,33.69
2016-10-07T15:13:22.108Z,33.56
2016-10-07T15:14:35.067Z,33.62
2016-10-07T15:15:48.641Z,33.61
2016-10-07T15:17:01.097Z,33.62
2016-10-07T15:18:14.013Z,33.52
2016-10-07T15:19:26.780Z,33.46
2016-10-07T15:20:40.030Z,33.68
2016-10-07T15:21:52.611Z,33.93
2016-10-07T15:23:06.210Z,34.34
2016-10-07T15:24:19.371Z,35.42
2016-10-07T15:25:31.344Z,35.98
2016-10-07T15:26:44.329Z,36.56
2016-10-07T15:27:57.938Z,37.07
2016-10-07T15:29:11.029Z,37.18
2016-10-07T15:30:23.955Z,37.15
2016-10-07T15:31:35.387Z,37.09
2016-10-07T15:32:47.947Z,37
2016-10-07T15:34:01.094Z,36.71
2016-10-07T15:35:14.813Z,36.39
2016-10-07T15:36:27.775Z,36.02
2016-10-07T15:37:40.724Z,35.79
2016-10-07T15:38:54.256Z,35.55
2016-10-07T15:40:06.790Z,35.3
2016-10-07T15:41:20.563Z,34.96
2016-10-07T15:42:33.047Z,34.83